sensor_id;sensor_type;location;lat;lon;timestamp;P1;durP1;ratioP1;P2;durP2;ratioP2
48014;SDS011;33780;51.034;7.120;2024-01-30T00:01:06;5.85;;;3.25;;
48014;SDS011;33780;51.034;7.120;2024-01-30T00:03:31;4.53;;;3.30;;
48014;SDS011;33780;51.034;7.120;2024-01-30T00:05:57;5.25;;;3.42;;
48014;SDS011;33780;51.034;7.120;2024-01-30T00:08:22;6.10;;;3.30;;
48014;SDS011;33780;51.034;7.120;2024-01-30T00:10:47;4.03;;;2.90;;
48014;SDS011;33780;51.034;7.120;2024-01-30T00:13:13;5.90;;;3.10;;
48014;SDS011;33780;51.034;7.120;2024-01-30T00:15:41;5.20;;;3.30;;
48014;SDS011;33780;51.034;7.120;2024-01-30T00:18:06;6.57;;;3.38;;
48014;SDS011;33780;51.034;7.120;2024-01-30T00:20:31;4.68;;;3.28;;
48014;SDS011;33780;51.034;7.120;2024-01-30T00:22:57;5.45;;;3.50;;
48014;SDS011;33780;51.034;7.120;2024-01-30T00:25:22;7.78;;;3.47;;
48014;SDS011;33780;51.034;7.120;2024-01-30T00:27:47;4.88;;;3.38;;
48014;SDS011;33780;51.034;7.120;2024-01-30T00:30:12;5.70;;;3.50;;
48014;SDS011;33780;51.034;7.120;2024-01-30T00:32:38;8.48;;;3.40;;
48014;SDS011;33780;51.034;7.120;2024-01-30T00:35:04;6.22;;;3.67;;
48014;SDS011;33780;51.034;7.120;2024-01-30T00:37:29;6.22;;;3.33;;
48014;SDS011;33780;51.034;7.120;2024-01-30T00:39:56;6.03;;;3.63;;
48014;SDS011;33780;51.034;7.120;2024-01-30T00:42:21;8.20;;;3.75;;
48014;SDS011;33780;51.034;7.120;2024-01-30T00:44:48;5.30;;;3.35;;
48014;SDS011;33780;51.034;7.120;2024-01-30T00:47:14;6.20;;;3.55;;
48014;SDS011;33780;51.034;7.120;2024-01-30T00:49:39;6.07;;;3.35;;
48014;SDS011;33780;51.034;7.120;2024-01-30T00:52:04;6.55;;;3.90;;
48014;SDS011;33780;51.034;7.120;2024-01-30T00:54:30;5.80;;;3.58;;
48014;SDS011;33780;51.034;7.120;2024-01-30T00:56:55;5.38;;;3.83;;
48014;SDS011;33780;51.034;7.120;2024-01-30T00:59:21;7.22;;;3.75;;
48014;SDS011;33780;51.034;7.120;2024-01-30T01:01:47;5.80;;;3.65;;
48014;SDS011;33780;51.034;7.120;2024-01-30T01:04:12;6.75;;;3.50;;
48014;SDS011;33780;51.034;7.120;2024-01-30T01:06:37;5.40;;;3.60;;
48014;SDS011;33780;51.034;7.120;2024-01-30T01:09:03;6.47;;;3.70;;
48014;SDS011;33780;51.034;7.120;2024-01-30T01:11:28;5.40;;;3.50;;
48014;SDS011;33780;51.034;7.120;2024-01-30T01:13:54;6.53;;;3.78;;
48014;SDS011;33780;51.034;7.120;2024-01-30T01:16:19;6.50;;;4.18;;
48014;SDS011;33780;51.034;7.120;2024-01-30T01:18:44;9.07;;;3.97;;
48014;SDS011;33780;51.034;7.120;2024-01-30T01:21:10;6.65;;;3.90;;
48014;SDS011;33780;51.034;7.120;2024-01-30T01:23:35;6.45;;;3.88;;
48014;SDS011;33780;51.034;7.120;2024-01-30T01:26:00;6.78;;;3.80;;
48014;SDS011;33780;51.034;7.120;2024-01-30T01:28:26;5.90;;;3.88;;
48014;SDS011;33780;51.034;7.120;2024-01-30T01:30:51;5.95;;;4.10;;
48014;SDS011;33780;51.034;7.120;2024-01-30T01:33:17;7.22;;;3.95;;
48014;SDS011;33780;51.034;7.120;2024-01-30T01:35:42;11.23;;;3.95;;
48014;SDS011;33780;51.034;7.120;2024-01-30T01:38:07;7.18;;;3.85;;
48014;SDS011;33780;51.034;7.120;2024-01-30T01:40:33;6.10;;;4.13;;
48014;SDS011;33780;51.034;7.120;2024-01-30T01:42:58;6.03;;;3.70;;
48014;SDS011;33780;51.034;7.120;2024-01-30T01:45:23;7.18;;;3.80;;
48014;SDS011;33780;51.034;7.120;2024-01-30T01:47:52;7.00;;;4.07;;
48014;SDS011;33780;51.034;7.120;2024-01-30T01:50:18;5.68;;;3.92;;
48014;SDS011;33780;51.034;7.120;2024-01-30T01:52:48;5.28;;;3.75;;
48014;SDS011;33780;51.034;7.120;2024-01-30T01:55:15;6.97;;;4.10;;
48014;SDS011;33780;51.034;7.120;2024-01-30T01:57:42;7.57;;;3.85;;
48014;SDS011;33780;51.034;7.120;2024-01-30T02:00:08;6.50;;;4.38;;
48014;SDS011;33780;51.034;7.120;2024-01-30T02:02:36;5.85;;;3.80;;
48014;SDS011;33780;51.034;7.120;2024-01-30T02:05:01;8.15;;;4.20;;
48014;SDS011;33780;51.034;7.120;2024-01-30T02:07:28;8.77;;;3.95;;
48014;SDS011;33780;51.034;7.120;2024-01-30T02:09:53;6.93;;;4.05;;
48014;SDS011;33780;51.034;7.120;2024-01-30T02:12:19;6.47;;;4.03;;
48014;SDS011;33780;51.034;7.120;2024-01-30T02:14:45;7.38;;;4.07;;
48014;SDS011;33780;51.034;7.120;2024-01-30T02:17:13;7.25;;;4.25;;
48014;SDS011;33780;51.034;7.120;2024-01-30T02:19:39;7.63;;;4.80;;
48014;SDS011;33780;51.034;7.120;2024-01-30T02:22:05;6.25;;;4.15;;
48014;SDS011;33780;51.034;7.120;2024-01-30T02:24:30;6.63;;;4.47;;
48014;SDS011;33780;51.034;7.120;2024-01-30T02:26:56;7.85;;;4.65;;
48014;SDS011;33780;51.034;7.120;2024-01-30T02:29:21;7.65;;;4.30;;
48014;SDS011;33780;51.034;7.120;2024-01-30T02:31:46;6.38;;;3.83;;
48014;SDS011;33780;51.034;7.120;2024-01-30T02:34:12;6.20;;;4.70;;
48014;SDS011;33780;51.034;7.120;2024-01-30T02:36:37;7.45;;;4.43;;
48014;SDS011;33780;51.034;7.120;2024-01-30T02:39:03;6.28;;;4.47;;
48014;SDS011;33780;51.034;7.120;2024-01-30T02:41:28;8.43;;;4.43;;
48014;SDS011;33780;51.034;7.120;2024-01-30T02:43:54;8.32;;;5.57;;
48014;SDS011;33780;51.034;7.120;2024-01-30T02:46:19;6.35;;;4.22;;
48014;SDS011;33780;51.034;7.120;2024-01-30T02:48:44;7.97;;;4.60;;
48014;SDS011;33780;51.034;7.120;2024-01-30T02:51:09;6.22;;;4.03;;
48014;SDS011;33780;51.034;7.120;2024-01-30T02:53:35;7.95;;;4.60;;
48014;SDS011;33780;51.034;7.120;2024-01-30T02:56:01;7.07;;;4.20;;
48014;SDS011;33780;51.034;7.120;2024-01-30T02:58:27;7.25;;;4.50;;
48014;SDS011;33780;51.034;7.120;2024-01-30T03:00:52;7.25;;;4.28;;
48014;SDS011;33780;51.034;7.120;2024-01-30T03:03:18;5.72;;;4.10;;
48014;SDS011;33780;51.034;7.120;2024-01-30T03:05:43;7.03;;;4.55;;
48014;SDS011;33780;51.034;7.120;2024-01-30T03:08:08;7.45;;;4.53;;
48014;SDS011;33780;51.034;7.120;2024-01-30T03:10:33;6.15;;;4.00;;
48014;SDS011;33780;51.034;7.120;2024-01-30T03:12:59;8.65;;;4.72;;
48014;SDS011;33780;51.034;7.120;2024-01-30T03:15:24;7.70;;;4.90;;
48014;SDS011;33780;51.034;7.120;2024-01-30T03:17:49;6.10;;;4.28;;
48014;SDS011;33780;51.034;7.120;2024-01-30T03:20:15;8.88;;;4.80;;
48014;SDS011;33780;51.034;7.120;2024-01-30T03:22:40;8.35;;;4.60;;
48014;SDS011;33780;51.034;7.120;2024-01-30T03:25:06;7.75;;;4.75;;
48014;SDS011;33780;51.034;7.120;2024-01-30T03:27:31;7.13;;;4.13;;
48014;SDS011;33780;51.034;7.120;2024-01-30T03:29:57;7.65;;;4.93;;
48014;SDS011;33780;51.034;7.120;2024-01-30T03:32:22;6.93;;;4.50;;
48014;SDS011;33780;51.034;7.120;2024-01-30T03:34:47;7.15;;;4.57;;
48014;SDS011;33780;51.034;7.120;2024-01-30T03:37:13;7.75;;;4.13;;
48014;SDS011;33780;51.034;7.120;2024-01-30T03:39:38;6.07;;;4.45;;
48014;SDS011;33780;51.034;7.120;2024-01-30T03:42:03;6.95;;;4.30;;
48014;SDS011;33780;51.034;7.120;2024-01-30T03:44:29;6.57;;;4.40;;
48014;SDS011;33780;51.034;7.120;2024-01-30T03:46:54;8.27;;;4.72;;
48014;SDS011;33780;51.034;7.120;2024-01-30T03:49:20;7.10;;;4.70;;
48014;SDS011;33780;51.034;7.120;2024-01-30T03:51:45;8.23;;;4.55;;
48014;SDS011;33780;51.034;7.120;2024-01-30T03:54:12;7.30;;;4.60;;
48014;SDS011;33780;51.034;7.120;2024-01-30T03:56:41;8.30;;;4.47;;
48014;SDS011;33780;51.034;7.120;2024-01-30T03:59:06;7.18;;;4.43;;
48014;SDS011;33780;51.034;7.120;2024-01-30T04:01:32;6.78;;;4.45;;
48014;SDS011;33780;51.034;7.120;2024-01-30T04:03:58;7.40;;;4.47;;
48014;SDS011;33780;51.034;7.120;2024-01-30T04:06:23;6.78;;;4.60;;
48014;SDS011;33780;51.034;7.120;2024-01-30T04:08:49;6.60;;;4.60;;
48014;SDS011;33780;51.034;7.120;2024-01-30T04:11:14;7.07;;;4.38;;
48014;SDS011;33780;51.034;7.120;2024-01-30T04:13:40;8.45;;;4.53;;
48014;SDS011;33780;51.034;7.120;2024-01-30T04:16:07;7.88;;;4.70;;
48014;SDS011;33780;51.034;7.120;2024-01-30T04:18:33;6.53;;;4.60;;
48014;SDS011;33780;51.034;7.120;2024-01-30T04:20:59;6.82;;;4.22;;
48014;SDS011;33780;51.034;7.120;2024-01-30T04:23:24;8.02;;;4.50;;
48014;SDS011;33780;51.034;7.120;2024-01-30T04:25:49;6.90;;;5.00;;
48014;SDS011;33780;51.034;7.120;2024-01-30T04:28:15;9.70;;;4.72;;
48014;SDS011;33780;51.034;7.120;2024-01-30T04:30:40;9.02;;;4.97;;
48014;SDS011;33780;51.034;7.120;2024-01-30T04:33:06;7.68;;;5.15;;
48014;SDS011;33780;51.034;7.120;2024-01-30T04:35:31;6.90;;;4.60;;
48014;SDS011;33780;51.034;7.120;2024-01-30T04:37:56;7.70;;;4.60;;
48014;SDS011;33780;51.034;7.120;2024-01-30T04:40:22;8.65;;;4.80;;
48014;SDS011;33780;51.034;7.120;2024-01-30T04:42:47;7.60;;;4.50;;
48014;SDS011;33780;51.034;7.120;2024-01-30T04:45:13;6.95;;;4.20;;
48014;SDS011;33780;51.034;7.120;2024-01-30T04:47:38;7.45;;;4.53;;
48014;SDS011;33780;51.034;7.120;2024-01-30T04:50:04;7.93;;;4.75;;
48014;SDS011;33780;51.034;7.120;2024-01-30T04:52:31;7.10;;;4.60;;
48014;SDS011;33780;51.034;7.120;2024-01-30T04:54:57;7.63;;;4.88;;
48014;SDS011;33780;51.034;7.120;2024-01-30T04:57:22;6.30;;;4.40;;
48014;SDS011;33780;51.034;7.120;2024-01-30T04:59:50;6.80;;;4.22;;
48014;SDS011;33780;51.034;7.120;2024-01-30T05:02:15;6.55;;;4.20;;
48014;SDS011;33780;51.034;7.120;2024-01-30T05:04:41;6.40;;;4.00;;
48014;SDS011;33780;51.034;7.120;2024-01-30T05:07:06;6.53;;;4.57;;
48014;SDS011;33780;51.034;7.120;2024-01-30T05:09:32;6.90;;;4.20;;
48014;SDS011;33780;51.034;7.120;2024-01-30T05:12:00;7.30;;;4.40;;
48014;SDS011;33780;51.034;7.120;2024-01-30T05:14:25;6.20;;;4.13;;
48014;SDS011;33780;51.034;7.120;2024-01-30T05:16:50;6.63;;;4.43;;
48014;SDS011;33780;51.034;7.120;2024-01-30T05:19:16;8.05;;;4.28;;
48014;SDS011;33780;51.034;7.120;2024-01-30T05:21:43;7.78;;;4.50;;
48014;SDS011;33780;51.034;7.120;2024-01-30T05:24:09;8.15;;;4.60;;
48014;SDS011;33780;51.034;7.120;2024-01-30T05:26:35;7.97;;;4.68;;
48014;SDS011;33780;51.034;7.120;2024-01-30T05:29:00;11.20;;;4.80;;
48014;SDS011;33780;51.034;7.120;2024-01-30T05:31:26;7.68;;;4.63;;
48014;SDS011;33780;51.034;7.120;2024-01-30T05:33:52;8.55;;;4.28;;
48014;SDS011;33780;51.034;7.120;2024-01-30T05:36:17;7.47;;;4.60;;
48014;SDS011;33780;51.034;7.120;2024-01-30T05:38:43;7.40;;;4.55;;
48014;SDS011;33780;51.034;7.120;2024-01-30T05:41:08;5.70;;;4.10;;
48014;SDS011;33780;51.034;7.120;2024-01-30T05:43:34;8.32;;;3.97;;
48014;SDS011;33780;51.034;7.120;2024-01-30T05:46:00;7.43;;;4.45;;
48014;SDS011;33780;51.034;7.120;2024-01-30T05:48:25;6.88;;;4.07;;
48014;SDS011;33780;51.034;7.120;2024-01-30T05:50:51;7.75;;;4.55;;
48014;SDS011;33780;51.034;7.120;2024-01-30T05:53:16;7.60;;;4.28;;
48014;SDS011;33780;51.034;7.120;2024-01-30T05:55:41;7.85;;;4.53;;
48014;SDS011;33780;51.034;7.120;2024-01-30T05:58:07;7.38;;;4.63;;
48014;SDS011;33780;51.034;7.120;2024-01-30T06:00:32;7.78;;;4.50;;
48014;SDS011;33780;51.034;7.120;2024-01-30T06:02:57;7.30;;;4.20;;
48014;SDS011;33780;51.034;7.120;2024-01-30T06:05:23;7.20;;;4.57;;
48014;SDS011;33780;51.034;7.120;2024-01-30T06:07:48;8.70;;;4.80;;
48014;SDS011;33780;51.034;7.120;2024-01-30T06:10:13;6.88;;;4.38;;
48014;SDS011;33780;51.034;7.120;2024-01-30T06:12:39;6.38;;;4.35;;
48014;SDS011;33780;51.034;7.120;2024-01-30T06:15:04;5.82;;;4.22;;
48014;SDS011;33780;51.034;7.120;2024-01-30T06:17:31;7.43;;;4.18;;
48014;SDS011;33780;51.034;7.120;2024-01-30T06:19:57;8.60;;;4.30;;
48014;SDS011;33780;51.034;7.120;2024-01-30T06:22:22;6.95;;;4.43;;
48014;SDS011;33780;51.034;7.120;2024-01-30T06:24:48;6.47;;;4.30;;
48014;SDS011;33780;51.034;7.120;2024-01-30T06:27:13;5.85;;;4.28;;
48014;SDS011;33780;51.034;7.120;2024-01-30T06:29:40;7.55;;;4.35;;
48014;SDS011;33780;51.034;7.120;2024-01-30T06:32:05;7.88;;;4.72;;
48014;SDS011;33780;51.034;7.120;2024-01-30T06:34:31;9.65;;;4.80;;
48014;SDS011;33780;51.034;7.120;2024-01-30T06:36:56;8.25;;;4.60;;
48014;SDS011;33780;51.034;7.120;2024-01-30T06:39:22;7.60;;;4.53;;
48014;SDS011;33780;51.034;7.120;2024-01-30T06:41:48;7.63;;;4.60;;
48014;SDS011;33780;51.034;7.120;2024-01-30T06:44:13;6.78;;;4.18;;
48014;SDS011;33780;51.034;7.120;2024-01-30T06:46:39;6.95;;;4.30;;
48014;SDS011;33780;51.034;7.120;2024-01-30T06:49:04;8.05;;;4.30;;
48014;SDS011;33780;51.034;7.120;2024-01-30T06:51:29;6.80;;;4.40;;
48014;SDS011;33780;51.034;7.120;2024-01-30T06:53:55;6.88;;;4.45;;
48014;SDS011;33780;51.034;7.120;2024-01-30T06:56:20;6.53;;;4.15;;
48014;SDS011;33780;51.034;7.120;2024-01-30T06:58:52;9.30;;;4.75;;
48014;SDS011;33780;51.034;7.120;2024-01-30T07:01:17;7.38;;;4.28;;
48014;SDS011;33780;51.034;7.120;2024-01-30T07:03:43;7.78;;;4.97;;
48014;SDS011;33780;51.034;7.120;2024-01-30T07:06:08;6.65;;;4.35;;
48014;SDS011;33780;51.034;7.120;2024-01-30T07:08:35;8.93;;;4.93;;
48014;SDS011;33780;51.034;7.120;2024-01-30T07:11:02;6.32;;;4.18;;
48014;SDS011;33780;51.034;7.120;2024-01-30T07:13:27;7.85;;;4.60;;
48014;SDS011;33780;51.034;7.120;2024-01-30T07:15:53;7.65;;;4.82;;
48014;SDS011;33780;51.034;7.120;2024-01-30T07:18:19;6.97;;;4.63;;
48014;SDS011;33780;51.034;7.120;2024-01-30T07:20:44;6.78;;;4.60;;
48014;SDS011;33780;51.034;7.120;2024-01-30T07:23:13;7.18;;;4.68;;
48014;SDS011;33780;51.034;7.120;2024-01-30T07:25:40;7.35;;;4.60;;
48014;SDS011;33780;51.034;7.120;2024-01-30T07:28:06;7.88;;;4.90;;
48014;SDS011;33780;51.034;7.120;2024-01-30T07:30:34;7.63;;;4.60;;
48014;SDS011;33780;51.034;7.120;2024-01-30T07:32:59;7.80;;;4.70;;
48014;SDS011;33780;51.034;7.120;2024-01-30T07:35:25;7.50;;;4.57;;
48014;SDS011;33780;51.034;7.120;2024-01-30T07:37:50;7.53;;;4.80;;
48014;SDS011;33780;51.034;7.120;2024-01-30T07:40:15;7.97;;;4.80;;
48014;SDS011;33780;51.034;7.120;2024-01-30T07:42:42;7.00;;;4.57;;
48014;SDS011;33780;51.034;7.120;2024-01-30T07:45:08;7.30;;;4.53;;
48014;SDS011;33780;51.034;7.120;2024-01-30T07:47:34;7.97;;;4.75;;
48014;SDS011;33780;51.034;7.120;2024-01-30T07:49:59;7.15;;;4.38;;
48014;SDS011;33780;51.034;7.120;2024-01-30T07:52:24;7.43;;;4.40;;
48014;SDS011;33780;51.034;7.120;2024-01-30T07:54:50;6.38;;;4.10;;
48014;SDS011;33780;51.034;7.120;2024-01-30T07:57:16;6.70;;;4.32;;
48014;SDS011;33780;51.034;7.120;2024-01-30T07:59:42;7.38;;;4.85;;
48014;SDS011;33780;51.034;7.120;2024-01-30T08:02:13;8.10;;;4.68;;
48014;SDS011;33780;51.034;7.120;2024-01-30T08:04:39;7.18;;;4.90;;
48014;SDS011;33780;51.034;7.120;2024-01-30T08:07:04;7.45;;;4.82;;
48014;SDS011;33780;51.034;7.120;2024-01-30T08:09:30;6.47;;;4.25;;
48014;SDS011;33780;51.034;7.120;2024-01-30T08:11:55;8.57;;;4.50;;
48014;SDS011;33780;51.034;7.120;2024-01-30T08:14:20;6.60;;;4.40;;
48014;SDS011;33780;51.034;7.120;2024-01-30T08:16:45;7.18;;;4.55;;
48014;SDS011;33780;51.034;7.120;2024-01-30T08:19:11;7.32;;;4.57;;
48014;SDS011;33780;51.034;7.120;2024-01-30T08:21:36;7.43;;;4.50;;
48014;SDS011;33780;51.034;7.120;2024-01-30T08:24:03;6.93;;;4.80;;
48014;SDS011;33780;51.034;7.120;2024-01-30T08:26:29;7.78;;;4.68;;
48014;SDS011;33780;51.034;7.120;2024-01-30T08:28:55;9.05;;;4.88;;
48014;SDS011;33780;51.034;7.120;2024-01-30T08:31:20;8.10;;;4.75;;
48014;SDS011;33780;51.034;7.120;2024-01-30T08:33:45;7.45;;;5.00;;
48014;SDS011;33780;51.034;7.120;2024-01-30T08:36:11;6.57;;;4.68;;
48014;SDS011;33780;51.034;7.120;2024-01-30T08:38:36;9.38;;;4.85;;
48014;SDS011;33780;51.034;7.120;2024-01-30T08:41:01;7.60;;;4.78;;
48014;SDS011;33780;51.034;7.120;2024-01-30T08:43:27;7.40;;;4.60;;
48014;SDS011;33780;51.034;7.120;2024-01-30T08:45:53;7.32;;;4.65;;
48014;SDS011;33780;51.034;7.120;2024-01-30T08:48:18;8.23;;;5.05;;
48014;SDS011;33780;51.034;7.120;2024-01-30T08:50:43;7.93;;;4.95;;
48014;SDS011;33780;51.034;7.120;2024-01-30T08:53:09;8.30;;;5.40;;
48014;SDS011;33780;51.034;7.120;2024-01-30T08:55:34;7.32;;;4.82;;
48014;SDS011;33780;51.034;7.120;2024-01-30T08:57:59;7.82;;;4.95;;
48014;SDS011;33780;51.034;7.120;2024-01-30T09:00:29;7.28;;;4.55;;
48014;SDS011;33780;51.034;7.120;2024-01-30T09:02:55;9.93;;;5.60;;
48014;SDS011;33780;51.034;7.120;2024-01-30T09:05:20;8.98;;;5.07;;
48014;SDS011;33780;51.034;7.120;2024-01-30T09:07:45;8.10;;;4.97;;
48014;SDS011;33780;51.034;7.120;2024-01-30T09:10:11;8.65;;;4.72;;
48014;SDS011;33780;51.034;7.120;2024-01-30T09:12:36;7.05;;;4.80;;
48014;SDS011;33780;51.034;7.120;2024-01-30T09:15:01;7.15;;;4.90;;
48014;SDS011;33780;51.034;7.120;2024-01-30T09:17:27;7.53;;;4.80;;
48014;SDS011;33780;51.034;7.120;2024-01-30T09:19:52;9.27;;;5.10;;
48014;SDS011;33780;51.034;7.120;2024-01-30T09:22:17;8.10;;;4.82;;
48014;SDS011;33780;51.034;7.120;2024-01-30T09:24:43;8.77;;;4.88;;
48014;SDS011;33780;51.034;7.120;2024-01-30T09:27:08;9.57;;;5.57;;
48014;SDS011;33780;51.034;7.120;2024-01-30T09:29:33;8.10;;;4.75;;
48014;SDS011;33780;51.034;7.120;2024-01-30T09:32:01;8.98;;;5.25;;
48014;SDS011;33780;51.034;7.120;2024-01-30T09:34:26;8.07;;;4.97;;
48014;SDS011;33780;51.034;7.120;2024-01-30T09:36:51;7.03;;;4.75;;
48014;SDS011;33780;51.034;7.120;2024-01-30T09:39:17;7.78;;;4.75;;
48014;SDS011;33780;51.034;7.120;2024-01-30T09:41:45;7.40;;;4.90;;
48014;SDS011;33780;51.034;7.120;2024-01-30T09:44:15;9.00;;;4.82;;
48014;SDS011;33780;51.034;7.120;2024-01-30T09:46:41;11.15;;;6.20;;
48014;SDS011;33780;51.034;7.120;2024-01-30T09:49:08;7.35;;;4.63;;
48014;SDS011;33780;51.034;7.120;2024-01-30T09:51:34;8.80;;;5.20;;
48014;SDS011;33780;51.034;7.120;2024-01-30T09:54:01;6.68;;;4.80;;
48014;SDS011;33780;51.034;7.120;2024-01-30T09:56:27;7.70;;;4.70;;
48014;SDS011;33780;51.034;7.120;2024-01-30T09:58:53;8.13;;;4.80;;
48014;SDS011;33780;51.034;7.120;2024-01-30T10:01:19;7.80;;;4.90;;
48014;SDS011;33780;51.034;7.120;2024-01-30T10:03:45;8.23;;;4.70;;
48014;SDS011;33780;51.034;7.120;2024-01-30T10:06:10;7.10;;;4.75;;
48014;SDS011;33780;51.034;7.120;2024-01-30T10:08:36;8.55;;;5.13;;
48014;SDS011;33780;51.034;7.120;2024-01-30T10:11:02;7.68;;;4.32;;
48014;SDS011;33780;51.034;7.120;2024-01-30T10:13:28;7.25;;;4.57;;
48014;SDS011;33780;51.034;7.120;2024-01-30T10:15:54;10.32;;;4.85;;
48014;SDS011;33780;51.034;7.120;2024-01-30T10:18:20;8.05;;;5.03;;
48014;SDS011;33780;51.034;7.120;2024-01-30T10:20:47;8.18;;;4.80;;
48014;SDS011;33780;51.034;7.120;2024-01-30T10:23:12;8.07;;;4.57;;
48014;SDS011;33780;51.034;7.120;2024-01-30T10:25:38;8.20;;;5.90;;
48014;SDS011;33780;51.034;7.120;2024-01-30T10:28:03;8.38;;;5.55;;
48014;SDS011;33780;51.034;7.120;2024-01-30T10:30:29;8.45;;;5.47;;
48014;SDS011;33780;51.034;7.120;2024-01-30T10:32:54;8.13;;;5.30;;
48014;SDS011;33780;51.034;7.120;2024-01-30T10:35:19;9.15;;;5.53;;
48014;SDS011;33780;51.034;7.120;2024-01-30T10:37:46;10.57;;;5.63;;
48014;SDS011;33780;51.034;7.120;2024-01-30T10:40:13;9.23;;;5.45;;
48014;SDS011;33780;51.034;7.120;2024-01-30T10:42:40;9.82;;;5.60;;
48014;SDS011;33780;51.034;7.120;2024-01-30T10:45:12;10.23;;;5.32;;
48014;SDS011;33780;51.034;7.120;2024-01-30T10:47:39;9.20;;;4.95;;
48014;SDS011;33780;51.034;7.120;2024-01-30T10:50:07;9.02;;;5.20;;
48014;SDS011;33780;51.034;7.120;2024-01-30T10:52:33;7.03;;;5.00;;
48014;SDS011;33780;51.034;7.120;2024-01-30T10:54:59;9.95;;;5.07;;
48014;SDS011;33780;51.034;7.120;2024-01-30T10:57:26;9.35;;;4.97;;
48014;SDS011;33780;51.034;7.120;2024-01-30T10:59:56;7.28;;;4.90;;
48014;SDS011;33780;51.034;7.120;2024-01-30T11:02:43;8.45;;;5.05;;
48014;SDS011;33780;51.034;7.120;2024-01-30T11:05:12;8.50;;;4.90;;
48014;SDS011;33780;51.034;7.120;2024-01-30T11:10:43;7.95;;;4.63;;
48014;SDS011;33780;51.034;7.120;2024-01-30T11:13:10;9.55;;;5.38;;
48014;SDS011;33780;51.034;7.120;2024-01-30T11:15:37;9.82;;;5.05;;
48014;SDS011;33780;51.034;7.120;2024-01-30T11:18:02;9.35;;;4.85;;
48014;SDS011;33780;51.034;7.120;2024-01-30T11:20:31;8.02;;;4.80;;
48014;SDS011;33780;51.034;7.120;2024-01-30T11:22:57;7.85;;;4.68;;
48014;SDS011;33780;51.034;7.120;2024-01-30T11:25:23;8.55;;;5.40;;
48014;SDS011;33780;51.034;7.120;2024-01-30T11:27:50;8.20;;;5.05;;
48014;SDS011;33780;51.034;7.120;2024-01-30T11:30:23;11.05;;;5.40;;
48014;SDS011;33780;51.034;7.120;2024-01-30T11:33:10;11.82;;;5.70;;
48014;SDS011;33780;51.034;7.120;2024-01-30T11:35:36;7.63;;;5.15;;
48014;SDS011;33780;51.034;7.120;2024-01-30T11:38:04;9.02;;;5.13;;
48014;SDS011;33780;51.034;7.120;2024-01-30T11:40:31;9.63;;;5.20;;
48014;SDS011;33780;51.034;7.120;2024-01-30T11:43:01;8.07;;;5.05;;
48014;SDS011;33780;51.034;7.120;2024-01-30T11:45:27;7.53;;;4.90;;
48014;SDS011;33780;51.034;7.120;2024-01-30T11:47:53;7.45;;;4.45;;
48014;SDS011;33780;51.034;7.120;2024-01-30T11:50:19;12.35;;;4.97;;
48014;SDS011;33780;51.034;7.120;2024-01-30T11:52:45;8.48;;;4.57;;
48014;SDS011;33780;51.034;7.120;2024-01-30T11:55:10;7.90;;;4.80;;
48014;SDS011;33780;51.034;7.120;2024-01-30T11:57:37;9.27;;;5.05;;
48014;SDS011;33780;51.034;7.120;2024-01-30T12:00:05;10.23;;;4.80;;
48014;SDS011;33780;51.034;7.120;2024-01-30T12:02:35;8.88;;;4.32;;
48014;SDS011;33780;51.034;7.120;2024-01-30T12:05:05;8.60;;;5.07;;
48014;SDS011;33780;51.034;7.120;2024-01-30T12:07:31;12.95;;;4.80;;
48014;SDS011;33780;51.034;7.120;2024-01-30T12:09:56;8.20;;;5.10;;
48014;SDS011;33780;51.034;7.120;2024-01-30T12:12:25;11.07;;;5.40;;
48014;SDS011;33780;51.034;7.120;2024-01-30T12:14:51;7.25;;;4.93;;
48014;SDS011;33780;51.034;7.120;2024-01-30T12:17:30;9.32;;;5.10;;
48014;SDS011;33780;51.034;7.120;2024-01-30T12:22:28;6.65;;;4.93;;
48014;SDS011;33780;51.034;7.120;2024-01-30T12:24:53;8.10;;;4.90;;
48014;SDS011;33780;51.034;7.120;2024-01-30T12:27:18;9.73;;;5.05;;
48014;SDS011;33780;51.034;7.120;2024-01-30T12:29:44;8.40;;;4.85;;
48014;SDS011;33780;51.034;7.120;2024-01-30T12:32:14;8.48;;;4.97;;
48014;SDS011;33780;51.034;7.120;2024-01-30T12:34:41;11.65;;;5.20;;
48014;SDS011;33780;51.034;7.120;2024-01-30T12:37:06;10.35;;;4.88;;
48014;SDS011;33780;51.034;7.120;2024-01-30T12:39:34;7.70;;;4.80;;
48014;SDS011;33780;51.034;7.120;2024-01-30T12:42:00;10.25;;;5.00;;
48014;SDS011;33780;51.034;7.120;2024-01-30T12:44:25;8.77;;;5.00;;
48014;SDS011;33780;51.034;7.120;2024-01-30T12:46:50;7.88;;;4.78;;
48014;SDS011;33780;51.034;7.120;2024-01-30T12:49:16;7.55;;;4.88;;
48014;SDS011;33780;51.034;7.120;2024-01-30T12:51:41;7.13;;;4.75;;
48014;SDS011;33780;51.034;7.120;2024-01-30T12:54:06;6.90;;;4.80;;
48014;SDS011;33780;51.034;7.120;2024-01-30T12:56:32;7.10;;;4.53;;
48014;SDS011;33780;51.034;7.120;2024-01-30T12:58:57;9.20;;;5.20;;
48014;SDS011;33780;51.034;7.120;2024-01-30T13:01:22;9.65;;;4.93;;
48014;SDS011;33780;51.034;7.120;2024-01-30T13:03:48;7.60;;;4.80;;
48014;SDS011;33780;51.034;7.120;2024-01-30T13:06:13;8.68;;;4.72;;
48014;SDS011;33780;51.034;7.120;2024-01-30T13:08:38;8.25;;;4.70;;
48014;SDS011;33780;51.034;7.120;2024-01-30T13:11:04;6.65;;;4.03;;
48014;SDS011;33780;51.034;7.120;2024-01-30T13:13:29;8.23;;;4.35;;
48014;SDS011;33780;51.034;7.120;2024-01-30T13:15:54;9.82;;;4.22;;
48014;SDS011;33780;51.034;7.120;2024-01-30T13:18:20;6.28;;;4.18;;
48014;SDS011;33780;51.034;7.120;2024-01-30T13:20:45;7.60;;;4.40;;
48014;SDS011;33780;51.034;7.120;2024-01-30T13:23:10;9.70;;;4.85;;
48014;SDS011;33780;51.034;7.120;2024-01-30T13:25:36;10.40;;;5.18;;
48014;SDS011;33780;51.034;7.120;2024-01-30T13:28:01;7.30;;;4.47;;
48014;SDS011;33780;51.034;7.120;2024-01-30T13:30:26;8.38;;;4.65;;
48014;SDS011;33780;51.034;7.120;2024-01-30T13:32:52;8.80;;;4.30;;
48014;SDS011;33780;51.034;7.120;2024-01-30T13:35:17;7.18;;;4.70;;
48014;SDS011;33780;51.034;7.120;2024-01-30T13:37:42;8.55;;;4.90;;
48014;SDS011;33780;51.034;7.120;2024-01-30T13:40:08;10.48;;;5.07;;
48014;SDS011;33780;51.034;7.120;2024-01-30T13:42:34;12.10;;;5.25;;
48014;SDS011;33780;51.034;7.120;2024-01-30T13:44:59;8.77;;;4.40;;
48014;SDS011;33780;51.034;7.120;2024-01-30T13:47:24;10.25;;;4.70;;
48014;SDS011;33780;51.034;7.120;2024-01-30T13:49:50;7.07;;;4.47;;
48014;SDS011;33780;51.034;7.120;2024-01-30T13:52:17;9.77;;;4.35;;
48014;SDS011;33780;51.034;7.120;2024-01-30T13:54:46;8.88;;;4.57;;
48014;SDS011;33780;51.034;7.120;2024-01-30T13:57:12;8.27;;;4.32;;
48014;SDS011;33780;51.034;7.120;2024-01-30T13:59:38;12.70;;;5.05;;
48014;SDS011;33780;51.034;7.120;2024-01-30T14:02:03;8.95;;;4.85;;
48014;SDS011;33780;51.034;7.120;2024-01-30T14:04:29;10.30;;;5.05;;
48014;SDS011;33780;51.034;7.120;2024-01-30T14:06:54;10.00;;;5.03;;
48014;SDS011;33780;51.034;7.120;2024-01-30T14:09:19;9.93;;;5.32;;
48014;SDS011;33780;51.034;7.120;2024-01-30T14:11:46;8.05;;;5.40;;
48014;SDS011;33780;51.034;7.120;2024-01-30T14:14:11;7.97;;;5.05;;
48014;SDS011;33780;51.034;7.120;2024-01-30T14:16:37;8.45;;;5.40;;
48014;SDS011;33780;51.034;7.120;2024-01-30T14:19:02;10.27;;;5.03;;
48014;SDS011;33780;51.034;7.120;2024-01-30T14:21:27;11.05;;;5.13;;
48014;SDS011;33780;51.034;7.120;2024-01-30T14:23:52;8.68;;;4.90;;
48014;SDS011;33780;51.034;7.120;2024-01-30T14:26:18;8.98;;;5.35;;
48014;SDS011;33780;51.034;7.120;2024-01-30T14:28:43;9.75;;;5.15;;
48014;SDS011;33780;51.034;7.120;2024-01-30T14:31:10;8.13;;;5.50;;
48014;SDS011;33780;51.034;7.120;2024-01-30T14:33:36;10.02;;;5.93;;
48014;SDS011;33780;51.034;7.120;2024-01-30T14:36:01;7.28;;;4.70;;
48014;SDS011;33780;51.034;7.120;2024-01-30T14:38:27;11.88;;;5.35;;
48014;SDS011;33780;51.034;7.120;2024-01-30T14:40:53;7.72;;;4.53;;
48014;SDS011;33780;51.034;7.120;2024-01-30T14:43:18;9.43;;;4.60;;